createdAt,value
2019-02-12T00:03:09.569Z,99.90
2019-02-12T00:07:08.864Z,99.90
2019-02-12T00:11:07.381Z,99.90
2019-02-12T00:15:07.056Z,99.90
2019-02-12T00:19:05.622Z,99.90
2019-02-12T00:23:04.259Z,99.90
2019-02-12T00:27:02.827Z,99.90
2019-02-12T00:31:03.044Z,99.90
2019-02-12T00:35:01.611Z,99.90
2019-02-12T00:39:00.207Z,99.90
2019-02-12T00:42:58.777Z,99.90
2019-02-12T00:46:57.325Z,99.90
2019-02-12T00:50:55.891Z,99.90
2019-02-12T00:54:54.425Z,99.90
2019-02-12T00:58:52.999Z,99.90
2019-02-12T01:02:51.545Z,99.90
2019-02-12T01:06:50.107Z,99.90
2019-02-12T01:10:54.179Z,99.90
2019-02-12T01:14:52.744Z,99.90
2019-02-12T01:18:52.787Z,99.90
2019-02-12T01:22:57.441Z,99.90
2019-02-12T01:26:55.982Z,99.90
2019-02-12T01:30:54.548Z,99.90
2019-02-12T01:34:53.113Z,99.90
2019-02-12T01:38:51.677Z,99.90
2019-02-12T01:42:50.581Z,99.90
2019-02-12T01:46:49.146Z,99.90
2019-02-12T01:50:47.717Z,99.90
2019-02-12T01:54:46.279Z,99.90
2019-02-12T01:58:44.849Z,99.90
2019-02-12T02:02:43.561Z,99.90
2019-02-12T02:06:42.139Z,99.90
2019-02-12T02:10:40.704Z,99.90
2019-02-12T02:14:39.288Z,99.90
2019-02-12T02:18:38.286Z,99.90
2019-02-12T02:22:38.860Z,99.90
2019-02-12T02:26:39.282Z,99.90
2019-02-12T02:30:37.901Z,99.90
2019-02-12T02:34:36.489Z,99.90
2019-02-12T02:38:35.060Z,99.90
2019-02-12T02:42:33.589Z,99.90
2019-02-12T02:46:32.168Z,99.90
2019-02-12T02:50:30.720Z,99.90
2019-02-12T02:54:29.279Z,99.90
2019-02-12T02:58:27.845Z,99.90
2019-02-12T03:02:26.392Z,99.90
2019-02-12T03:06:24.963Z,99.90
2019-02-12T03:10:23.458Z,99.90
2019-02-12T03:14:29.510Z,99.90
2019-02-12T03:18:28.083Z,99.90
2019-02-12T03:22:26.623Z,99.90
2019-02-12T03:26:27.850Z,99.90
2019-02-12T03:30:26.425Z,99.90
2019-02-12T03:34:24.962Z,99.90
2019-02-12T03:38:26.453Z,99.90
2019-02-12T03:42:25.048Z,99.90
2019-02-12T03:46:23.584Z,99.90
2019-02-12T03:50:25.198Z,99.90
2019-02-12T03:54:23.939Z,99.90
2019-02-12T03:58:22.485Z,99.90
2019-02-12T04:02:21.424Z,99.90
2019-02-12T04:06:20.058Z,99.90
2019-02-12T04:10:18.645Z,99.90
2019-02-12T04:14:17.194Z,99.90
2019-02-12T04:18:16.412Z,99.90
2019-02-12T04:22:22.261Z,99.90
2019-02-12T04:26:15.936Z,99.90
2019-02-12T04:30:14.482Z,99.90
2019-02-12T04:34:14.901Z,99.90
2019-02-12T04:38:13.521Z,99.90
2019-02-12T04:42:13.618Z,99.90
2019-02-12T04:46:12.192Z,99.90
2019-02-12T04:50:15.187Z,99.90
2019-02-12T04:54:13.698Z,99.90
2019-02-12T04:58:14.331Z,99.90
2019-02-12T05:02:13.211Z,99.90
2019-02-12T05:06:11.774Z,99.90
2019-02-12T05:10:19.375Z,99.90
2019-02-12T05:14:22.411Z,99.90
2019-02-12T05:18:20.989Z,99.90
2019-02-12T05:22:19.522Z,99.90
2019-02-12T05:26:18.413Z,99.90
2019-02-12T05:30:16.936Z,99.90
2019-02-12T05:34:15.489Z,99.90
2019-02-12T05:38:14.077Z,99.90
2019-02-12T05:42:12.610Z,99.90
2019-02-12T05:46:12.848Z,99.90
2019-02-12T05:50:16.530Z,99.90
2019-02-12T05:54:15.080Z,99.90
2019-02-12T05:58:13.639Z,99.90
2019-02-12T06:02:12.492Z,99.90
2019-02-12T06:06:11.055Z,99.90
2019-02-12T06:10:11.177Z,99.90
2019-02-12T06:14:09.726Z,99.90
2019-02-12T06:18:08.305Z,99.90
2019-02-12T06:22:06.858Z,99.90
2019-02-12T06:26:05.408Z,99.90
2019-02-12T06:30:05.037Z,99.90
2019-02-12T06:34:03.589Z,99.90
2019-02-12T06:38:02.167Z,99.90
2019-02-12T06:42:00.751Z,99.90
2019-02-12T06:45:59.298Z,99.90
2019-02-12T06:49:57.866Z,99.90
2019-02-12T06:53:56.409Z,99.90
2019-02-12T06:57:54.972Z,99.90
2019-02-12T07:01:56.592Z,99.90
2019-02-12T07:05:58.231Z,99.90
2019-02-12T07:09:56.772Z,99.90
2019-02-12T07:14:10.052Z,99.90
2019-02-12T07:18:38.098Z,99.90
2019-02-12T07:22:54.846Z,99.90
2019-02-12T07:27:16.164Z,99.90
2019-02-12T07:31:40.349Z,99.90
2019-02-12T07:35:44.511Z,99.90
2019-02-12T07:40:11.697Z,99.90
2019-02-12T07:44:25.244Z,99.90
2019-02-12T07:48:26.893Z,99.90
2019-02-12T07:53:01.667Z,99.90
2019-02-12T07:57:22.660Z,99.90
2019-02-12T08:01:24.313Z,99.90
2019-02-12T08:05:44.567Z,99.90
2019-02-12T08:10:09.890Z,99.90
2019-02-12T08:14:32.833Z,99.90
2019-02-12T08:18:37.893Z,99.90
2019-02-12T08:22:54.268Z,99.90
2019-02-12T08:27:26.322Z,99.90
2019-02-12T08:31:33.341Z,99.90
2019-02-12T08:35:57.289Z,99.90
2019-02-12T08:40:04.986Z,99.90
2019-02-12T08:44:23.117Z,99.90
2019-02-12T08:48:24.755Z,99.90
2019-02-12T08:52:35.269Z,99.90
2019-02-12T08:56:42.532Z,99.90
2019-02-12T09:00:48.144Z,99.90
2019-02-12T09:04:52.621Z,99.90
2019-02-12T09:09:00.135Z,99.90
2019-02-12T09:13:19.947Z,99.90
2019-02-12T09:17:21.586Z,99.90
2019-02-12T09:21:51.838Z,99.90
2019-02-12T09:25:53.823Z,99.90
2019-02-12T09:30:18.037Z,99.90
2019-02-12T09:34:40.997Z,99.90
2019-02-12T09:39:13.280Z,99.90
2019-02-12T09:43:14.894Z,99.90
2019-02-12T09:47:25.423Z,99.90
2019-02-12T09:51:35.650Z,99.90
2019-02-12T09:55:43.120Z,99.90
2019-02-12T09:59:56.618Z,99.90
2019-02-12T10:04:10.023Z,99.90
2019-02-12T10:08:14.202Z,99.90
2019-02-12T10:12:31.266Z,99.90
2019-02-12T10:16:55.682Z,99.90
2019-02-12T10:20:59.974Z,99.90
2019-02-12T10:25:16.931Z,99.90
2019-02-12T10:29:27.537Z,99.90
2019-02-12T10:33:26.090Z,99.90
2019-02-12T10:37:24.682Z,99.90
2019-02-12T10:41:23.353Z,99.90
2019-02-12T10:45:21.990Z,99.90
2019-02-12T10:49:20.531Z,99.90
2019-02-12T10:53:19.982Z,99.90
2019-02-12T10:57:18.511Z,99.90
2019-02-12T11:01:17.063Z,99.90
2019-02-12T11:05:15.641Z,99.90
2019-02-12T11:09:14.273Z,99.90
2019-02-12T11:13:14.875Z,99.90
2019-02-12T11:17:13.473Z,99.90
2019-02-12T11:21:12.479Z,99.90
2019-02-12T11:25:11.318Z,99.90
2019-02-12T11:29:09.888Z,99.90
2019-02-12T11:33:08.548Z,99.90
2019-02-12T11:37:07.089Z,99.90
2019-02-12T11:41:05.650Z,99.90
2019-02-12T11:45:06.247Z,99.90
2019-02-12T11:49:04.881Z,99.90
2019-02-12T11:53:03.533Z,99.90
2019-02-12T11:57:02.094Z,99.90
2019-02-12T12:01:01.006Z,99.90
2019-02-12T12:04:59.581Z,99.90
2019-02-12T12:08:59.731Z,99.90
2019-02-12T12:12:58.280Z,99.90
2019-02-12T12:16:56.836Z,99.80
2019-02-12T12:20:55.434Z,98.80
2019-02-12T12:24:54.012Z,97.20
2019-02-12T12:28:52.570Z,97.70
2019-02-12T12:32:51.112Z,96.10
2019-02-12T12:36:49.679Z,96.10
2019-02-12T12:40:50.247Z,97.10
2019-02-12T12:44:48.740Z,95.80
2019-02-12T12:48:47.281Z,96.60
2019-02-12T12:52:47.904Z,97.20
2019-02-12T12:56:46.466Z,99.80
2019-02-12T13:00:45.429Z,98.70
2019-02-12T13:04:45.227Z,99.10
2019-02-12T13:08:43.868Z,98.20
2019-02-12T13:12:42.793Z,98.00
2019-02-12T13:16:42.101Z,97.50
2019-02-12T13:20:40.658Z,98.00
2019-02-12T13:24:39.230Z,96.00
2019-02-12T13:28:49.756Z,97.70
2019-02-12T13:32:48.368Z,97.40
2019-02-12T13:36:46.917Z,96.90
2019-02-12T13:40:45.471Z,96.40
2019-02-12T13:44:44.036Z,95.30
2019-02-12T13:49:06.968Z,95.70
2019-02-12T13:53:05.525Z,95.70
2019-02-12T13:57:04.728Z,95.70
2019-02-12T14:01:14.997Z,96.10
2019-02-12T14:05:24.378Z,95.40
2019-02-12T14:09:23.156Z,94.10
2019-02-12T14:13:21.724Z,94.60
2019-02-12T14:17:20.296Z,94.20
2019-02-12T14:21:18.879Z,95.40
2019-02-12T14:25:24.960Z,95.10
2019-02-12T14:29:17.701Z,93.70
2019-02-12T14:33:16.620Z,95.20
2019-02-12T14:37:15.174Z,96.90
2019-02-12T14:41:16.499Z,95.00
2019-02-12T14:45:19.145Z,96.20
2019-02-12T14:49:17.726Z,96.70
2019-02-12T14:53:16.312Z,95.90
2019-02-12T14:57:20.482Z,96.40
2019-02-12T15:01:19.592Z,96.10
2019-02-12T15:05:18.137Z,96.70
2019-02-12T15:09:17.028Z,95.60
2019-02-12T15:13:15.573Z,95.70
2019-02-12T15:17:14.059Z,94.80
2019-02-12T15:21:12.653Z,95.80
2019-02-12T15:25:12.546Z,96.90
2019-02-12T15:29:11.211Z,97.40
2019-02-12T15:33:09.876Z,97.70
2019-02-12T15:37:14.447Z,98.20
2019-02-12T15:41:09.867Z,98.50
2019-02-12T15:45:15.914Z,99.00
2019-02-12T15:49:14.805Z,99.60
2019-02-12T15:53:17.098Z,99.90
2019-02-12T15:57:15.661Z,99.90
2019-02-12T16:01:14.247Z,99.90
2019-02-12T16:05:13.651Z,99.90
2019-02-12T16:09:13.665Z,99.90
2019-02-12T16:13:13.650Z,99.90
2019-02-12T16:17:14.035Z,99.90
2019-02-12T16:21:12.671Z,99.90
2019-02-12T16:25:27.430Z,99.90
2019-02-12T16:29:28.685Z,99.90
2019-02-12T16:33:27.268Z,99.90
2019-02-12T16:37:27.366Z,99.90
2019-02-12T16:41:25.919Z,99.90
2019-02-12T16:45:42.285Z,99.90
2019-02-12T16:49:42.707Z,99.90
2019-02-12T16:53:41.195Z,99.90
2019-02-12T16:57:39.862Z,99.90
2019-02-12T17:01:38.401Z,99.90
2019-02-12T17:05:36.982Z,99.90
2019-02-12T17:09:39.225Z,99.90
2019-02-12T17:17:55.439Z,99.90
2019-02-12T17:21:54.382Z,99.90
2019-02-12T17:25:52.901Z,99.90
2019-02-12T17:29:51.477Z,99.90
2019-02-12T17:33:50.036Z,99.90
2019-02-12T17:37:48.708Z,99.90
2019-02-12T17:41:47.281Z,99.90
2019-02-12T17:45:45.846Z,99.90
2019-02-12T17:49:44.428Z,99.90
2019-02-12T17:53:46.264Z,99.90
2019-02-12T17:57:46.317Z,99.90
2019-02-12T18:01:44.932Z,99.90
2019-02-12T18:05:43.469Z,99.90
2019-02-12T18:09:42.062Z,99.90
2019-02-12T18:13:40.666Z,99.90
2019-02-12T18:17:39.211Z,99.90
2019-02-12T18:21:37.733Z,99.90
2019-02-12T18:25:36.260Z,99.90
2019-02-12T18:29:34.812Z,99.90
2019-02-12T18:33:33.407Z,99.90
2019-02-12T18:37:31.956Z,99.90
2019-02-12T18:41:40.621Z,99.90
2019-02-12T18:45:39.268Z,99.90
2019-02-12T18:49:37.810Z,99.90
2019-02-12T18:53:36.450Z,99.90
2019-02-12T18:57:35.007Z,99.90
2019-02-12T19:01:33.829Z,99.90
2019-02-12T19:05:32.437Z,99.90
2019-02-12T19:09:31.001Z,99.90
2019-02-12T19:13:29.571Z,99.90
2019-02-12T19:17:28.147Z,99.90
2019-02-12T19:21:26.694Z,99.90
2019-02-12T19:25:25.194Z,99.90
2019-02-12T19:29:23.744Z,99.90
2019-02-12T19:33:22.689Z,99.90
2019-02-12T19:37:24.005Z,99.90
2019-02-12T19:41:22.542Z,99.90
2019-02-12T19:45:21.081Z,99.90
2019-02-12T19:49:19.655Z,99.90
2019-02-12T19:53:18.218Z,99.90
2019-02-12T19:57:16.795Z,99.90
2019-02-12T20:01:15.401Z,99.90
2019-02-12T20:05:14.163Z,99.90
2019-02-12T20:09:14.492Z,99.90
2019-02-12T20:13:13.046Z,99.90
2019-02-12T20:17:11.541Z,99.90
2019-02-12T20:21:10.093Z,99.90
2019-02-12T20:25:09.998Z,99.90
2019-02-12T20:29:08.554Z,99.90
2019-02-12T20:33:07.050Z,99.90
2019-02-12T20:37:05.664Z,99.90
2019-02-12T20:41:04.322Z,99.90
2019-02-12T20:45:03.167Z,99.90
2019-02-12T20:49:01.734Z,99.90
2019-02-12T20:53:02.261Z,99.90
2019-02-12T20:57:00.507Z,99.90
2019-02-12T21:01:03.483Z,99.90
2019-02-12T21:05:02.685Z,99.90
2019-02-12T21:09:01.158Z,99.90
2019-02-12T21:12:59.731Z,99.90
2019-02-12T21:16:59.190Z,99.90
2019-02-12T21:20:57.763Z,99.90
2019-02-12T21:24:57.204Z,99.90
2019-02-12T21:28:55.784Z,99.90
2019-02-12T21:32:54.331Z,99.90
2019-02-12T21:36:52.904Z,99.90
2019-02-12T21:40:51.474Z,99.90
2019-02-12T21:44:50.041Z,99.90
2019-02-12T21:48:48.618Z,99.90
2019-02-12T21:52:47.161Z,99.90
2019-02-12T22:00:54.487Z,99.90
2019-02-12T22:04:53.066Z,99.90
2019-02-12T22:08:51.658Z,99.90
2019-02-12T22:12:50.329Z,99.90
2019-02-12T22:16:48.892Z,99.90
2019-02-12T22:20:47.441Z,99.90
2019-02-12T22:24:46.012Z,99.90
2019-02-12T22:28:44.587Z,99.90
2019-02-12T22:32:43.736Z,99.90
2019-02-12T22:36:42.333Z,99.90
2019-02-12T22:40:40.899Z,99.90
2019-02-12T22:44:39.489Z,99.90
2019-02-12T22:48:38.053Z,99.90
2019-02-12T22:52:36.613Z,99.90
2019-02-12T22:56:35.214Z,99.90
2019-02-12T23:00:57.224Z,99.90
2019-02-12T23:04:55.789Z,99.90
2019-02-12T23:08:54.345Z,99.90
2019-02-12T23:12:53.262Z,99.90
2019-02-12T23:16:51.888Z,99.90
2019-02-12T23:20:57.540Z,99.90
2019-02-12T23:35:07.730Z,99.90
2019-02-12T23:39:06.561Z,99.90
2019-02-12T23:43:07.279Z,99.90
2019-02-12T23:47:05.870Z,99.90
2019-02-12T23:51:04.431Z,99.90
2019-02-12T23:55:03.321Z,99.90
2019-02-12T23:59:09.072Z,99.90
